sensor_id;sensor_type;location;lat;lon;timestamp;pressure;altitude;pressure_sealevel;temperature;humidity
6435;BME280;3250;42.694;23.278;2022-08-21T00:01:58;94322.25;;;20.57;93.71
6435;BME280;3250;42.694;23.278;2022-08-21T00:04:24;94313.13;;;20.58;94.30
6435;BME280;3250;42.694;23.278;2022-08-21T00:06:50;94317.47;;;20.54;93.44
6435;BME280;3250;42.694;23.278;2022-08-21T00:09:17;94287.19;;;20.34;93.31
6435;BME280;3250;42.694;23.278;2022-08-21T00:11:43;94315.66;;;20.49;93.64
6435;BME280;3250;42.694;23.278;2022-08-21T00:14:10;94314.63;;;20.45;94.04
6435;BME280;3250;42.694;23.278;2022-08-21T00:16:36;94317.84;;;20.42;94.11
6435;BME280;3250;42.694;23.278;2022-08-21T00:19:02;94307.41;;;20.46;94.83
6435;BME280;3250;42.694;23.278;2022-08-21T00:21:28;94309.78;;;20.47;94.89
6435;BME280;3250;42.694;23.278;2022-08-21T00:23:54;94298.56;;;20.45;94.65
6435;BME280;3250;42.694;23.278;2022-08-21T00:26:19;94280.50;;;20.37;94.47
6435;BME280;3250;42.694;23.278;2022-08-21T00:28:45;94296.97;;;20.44;94.60
6435;BME280;3250;42.694;23.278;2022-08-21T00:31:11;94279.69;;;20.37;95.15
6435;BME280;3250;42.694;23.278;2022-08-21T00:33:37;94288.16;;;20.44;94.79
6435;BME280;3250;42.694;23.278;2022-08-21T00:36:03;94294.09;;;20.41;94.57
6435;BME280;3250;42.694;23.278;2022-08-21T00:38:28;94294.38;;;20.39;94.90
6435;BME280;3250;42.694;23.278;2022-08-21T00:40:57;94301.88;;;20.37;95.04
6435;BME280;3250;42.694;23.278;2022-08-21T00:43:28;94295.47;;;20.38;94.43
6435;BME280;3250;42.694;23.278;2022-08-21T00:45:55;94286.44;;;20.29;94.66
6435;BME280;3250;42.694;23.278;2022-08-21T00:48:21;94297.09;;;20.34;94.46
6435;BME280;3250;42.694;23.278;2022-08-21T00:50:56;94305.72;;;20.26;94.40
6435;BME280;3250;42.694;23.278;2022-08-21T00:53:23;94292.00;;;20.09;94.93
6435;BME280;3250;42.694;23.278;2022-08-21T00:55:51;94300.25;;;20.12;95.13
6435;BME280;3250;42.694;23.278;2022-08-21T00:58:18;94301.25;;;20.16;95.27
6435;BME280;3250;42.694;23.278;2022-08-21T01:00:46;94296.72;;;20.17;94.80
6435;BME280;3250;42.694;23.278;2022-08-21T01:03:16;94295.13;;;20.16;95.33
6435;BME280;3250;42.694;23.278;2022-08-21T01:05:42;94268.28;;;20.02;95.36
6435;BME280;3250;42.694;23.278;2022-08-21T01:08:10;94299.38;;;20.17;95.58
6435;BME280;3250;42.694;23.278;2022-08-21T01:10:36;94298.03;;;20.19;95.80
6435;BME280;3250;42.694;23.278;2022-08-21T01:13:04;94281.44;;;20.22;94.90
6435;BME280;3250;42.694;23.278;2022-08-21T01:15:34;94256.47;;;20.08;94.68
6435;BME280;3250;42.694;23.278;2022-08-21T01:18:02;94277.38;;;20.25;94.08
6435;BME280;3250;42.694;23.278;2022-08-21T01:20:29;94269.66;;;20.23;95.05
6435;BME280;3250;42.694;23.278;2022-08-21T01:22:54;94259.81;;;20.19;95.04
6435;BME280;3250;42.694;23.278;2022-08-21T01:25:20;94269.50;;;20.15;94.74
6435;BME280;3250;42.694;23.278;2022-08-21T01:27:46;94273.19;;;20.19;94.68
6435;BME280;3250;42.694;23.278;2022-08-21T01:30:16;94253.78;;;20.08;94.19
6435;BME280;3250;42.694;23.278;2022-08-21T01:32:43;94272.75;;;19.83;94.98
6435;BME280;3250;42.694;23.278;2022-08-21T01:35:11;94241.13;;;19.66;96.03
6435;BME280;3250;42.694;23.278;2022-08-21T01:37:36;94256.28;;;19.76;96.19
6435;BME280;3250;42.694;23.278;2022-08-21T01:40:04;94273.28;;;19.85;96.05
6435;BME280;3250;42.694;23.278;2022-08-21T01:42:29;94277.75;;;19.89;95.81
6435;BME280;3250;42.694;23.278;2022-08-21T01:44:55;94264.00;;;19.77;95.48
6435;BME280;3250;42.694;23.278;2022-08-21T01:47:21;94275.88;;;19.90;95.77
6435;BME280;3250;42.694;23.278;2022-08-21T01:49:47;94276.41;;;19.92;95.44
6435;BME280;3250;42.694;23.278;2022-08-21T01:52:12;94282.53;;;19.98;94.98
6435;BME280;3250;42.694;23.278;2022-08-21T01:54:38;94285.50;;;19.91;94.79
6435;BME280;3250;42.694;23.278;2022-08-21T01:57:04;94280.75;;;19.88;94.38
6435;BME280;3250;42.694;23.278;2022-08-21T01:59:30;94271.94;;;19.87;94.79
6435;BME280;3250;42.694;23.278;2022-08-21T02:01:56;94277.28;;;19.87;94.82
6435;BME280;3250;42.694;23.278;2022-08-21T02:04:21;94272.03;;;19.77;94.75
6435;BME280;3250;42.694;23.278;2022-08-21T02:06:48;94287.38;;;19.90;94.87
6435;BME280;3250;42.694;23.278;2022-08-21T02:09:14;94286.56;;;19.90;94.89
6435;BME280;3250;42.694;23.278;2022-08-21T02:11:41;94290.81;;;19.96;95.09
6435;BME280;3250;42.694;23.278;2022-08-21T02:14:08;94294.28;;;19.96;95.74
6435;BME280;3250;42.694;23.278;2022-08-21T02:16:34;94258.13;;;19.80;95.79
6435;BME280;3250;42.694;23.278;2022-08-21T02:19:00;94293.66;;;20.05;95.30
6435;BME280;3250;42.694;23.278;2022-08-21T02:21:25;94296.59;;;20.03;95.16
6435;BME280;3250;42.694;23.278;2022-08-21T02:23:51;94293.03;;;20.13;94.74
6435;BME280;3250;42.694;23.278;2022-08-21T02:26:17;94276.06;;;19.98;94.41
6435;BME280;3250;42.694;23.278;2022-08-21T02:28:42;94291.66;;;20.15;94.40
6435;BME280;3250;42.694;23.278;2022-08-21T02:31:08;94296.22;;;20.15;94.09
6435;BME280;3250;42.694;23.278;2022-08-21T02:33:34;94299.97;;;20.14;94.13
6435;BME280;3250;42.694;23.278;2022-08-21T02:36:00;94291.25;;;20.03;94.10
6435;BME280;3250;42.694;23.278;2022-08-21T02:38:30;94293.13;;;20.03;94.03
6435;BME280;3250;42.694;23.278;2022-08-21T02:40:56;94299.28;;;20.03;94.17
6435;BME280;3250;42.694;23.278;2022-08-21T02:43:24;94305.94;;;20.06;93.89
6435;BME280;3250;42.694;23.278;2022-08-21T02:45:52;94300.59;;;20.06;93.94
6435;BME280;3250;42.694;23.278;2022-08-21T02:48:20;94302.00;;;19.98;93.87
6435;BME280;3250;42.694;23.278;2022-08-21T02:50:51;94298.81;;;19.96;93.51
6435;BME280;3250;42.694;23.278;2022-08-21T02:53:17;94297.50;;;19.93;93.89
6435;BME280;3250;42.694;23.278;2022-08-21T02:55:45;94297.22;;;19.95;94.41
6435;BME280;3250;42.694;23.278;2022-08-21T02:58:11;94289.16;;;20.00;94.05
6435;BME280;3250;42.694;23.278;2022-08-21T03:00:37;94269.28;;;19.82;93.88
6435;BME280;3250;42.694;23.278;2022-08-21T03:03:04;94268.22;;;19.83;94.00
6435;BME280;3250;42.694;23.278;2022-08-21T03:05:30;94297.75;;;19.97;93.69
6435;BME280;3250;42.694;23.278;2022-08-21T03:07:57;94301.50;;;19.96;93.55
6435;BME280;3250;42.694;23.278;2022-08-21T03:10:24;94297.59;;;19.83;93.91
6435;BME280;3250;42.694;23.278;2022-08-21T03:12:50;94303.47;;;19.85;94.64
6435;BME280;3250;42.694;23.278;2022-08-21T03:15:19;94292.25;;;19.83;94.72
6435;BME280;3250;42.694;23.278;2022-08-21T03:17:46;94298.66;;;19.87;94.88
6435;BME280;3250;42.694;23.278;2022-08-21T03:20:14;94294.09;;;19.88;94.58
6435;BME280;3250;42.694;23.278;2022-08-21T03:22:41;94286.63;;;19.85;94.68
6435;BME280;3250;42.694;23.278;2022-08-21T03:25:07;94300.19;;;19.93;94.37
6435;BME280;3250;42.694;23.278;2022-08-21T03:27:34;94274.69;;;19.77;94.42
6435;BME280;3250;42.694;23.278;2022-08-21T03:30:00;94307.94;;;19.90;94.63
6435;BME280;3250;42.694;23.278;2022-08-21T03:32:26;94298.66;;;19.87;94.38
6435;BME280;3250;42.694;23.278;2022-08-21T03:34:51;94283.41;;;19.88;94.52
6435;BME280;3250;42.694;23.278;2022-08-21T03:37:17;94260.34;;;19.68;94.44
6435;BME280;3250;42.694;23.278;2022-08-21T03:39:43;94279.19;;;19.82;94.55
6435;BME280;3250;42.694;23.278;2022-08-21T03:42:10;94292.72;;;19.90;95.25
6435;BME280;3250;42.694;23.278;2022-08-21T03:44:36;94286.81;;;19.93;94.56
6435;BME280;3250;42.694;23.278;2022-08-21T03:47:02;94290.28;;;19.94;94.47
6435;BME280;3250;42.694;23.278;2022-08-21T03:49:28;94284.94;;;19.94;95.29
6435;BME280;3250;42.694;23.278;2022-08-21T03:51:54;94277.81;;;19.84;95.16
6435;BME280;3250;42.694;23.278;2022-08-21T03:54:19;94302.78;;;19.98;95.61
6435;BME280;3250;42.694;23.278;2022-08-21T03:56:45;94302.75;;;20.04;94.54
6435;BME280;3250;42.694;23.278;2022-08-21T03:59:11;94291.91;;;19.90;94.48
6435;BME280;3250;42.694;23.278;2022-08-21T04:01:37;94283.22;;;19.79;95.08
6435;BME280;3250;42.694;23.278;2022-08-21T04:04:04;94312.75;;;19.93;94.86
6435;BME280;3250;42.694;23.278;2022-08-21T04:06:30;94309.53;;;19.91;95.21
6435;BME280;3250;42.694;23.278;2022-08-21T04:08:55;94310.88;;;19.93;94.75
6435;BME280;3250;42.694;23.278;2022-08-21T04:11:21;94315.94;;;19.95;94.15
6435;BME280;3250;42.694;23.278;2022-08-21T04:13:47;94295.88;;;19.69;94.55
6435;BME280;3250;42.694;23.278;2022-08-21T04:16:13;94319.03;;;19.78;95.03
6435;BME280;3250;42.694;23.278;2022-08-21T04:18:39;94321.13;;;19.81;94.99
6435;BME280;3250;42.694;23.278;2022-08-21T04:21:05;94301.69;;;19.76;94.83
6435;BME280;3250;42.694;23.278;2022-08-21T04:23:32;94310.50;;;19.76;94.83
6435;BME280;3250;42.694;23.278;2022-08-21T04:25:58;94301.97;;;19.74;94.85
6435;BME280;3250;42.694;23.278;2022-08-21T04:28:26;94304.91;;;19.73;94.87
6435;BME280;3250;42.694;23.278;2022-08-21T04:30:52;94309.44;;;19.72;95.71
6435;BME280;3250;42.694;23.278;2022-08-21T04:33:18;94311.63;;;19.70;95.61
6435;BME280;3250;42.694;23.278;2022-08-21T04:35:44;94304.09;;;19.72;96.08
6435;BME280;3250;42.694;23.278;2022-08-21T04:38:09;94295.06;;;19.68;95.49
6435;BME280;3250;42.694;23.278;2022-08-21T04:40:35;94315.22;;;19.84;95.92
6435;BME280;3250;42.694;23.278;2022-08-21T04:43:06;94292.34;;;19.73;96.56
6435;BME280;3250;42.694;23.278;2022-08-21T04:45:41;94310.59;;;19.95;95.58
6435;BME280;3250;42.694;23.278;2022-08-21T04:48:08;94310.59;;;19.95;95.97
6435;BME280;3250;42.694;23.278;2022-08-21T04:50:50;94307.56;;;20.02;95.59
6435;BME280;3250;42.694;23.278;2022-08-21T04:53:20;94311.75;;;20.13;95.34
6435;BME280;3250;42.694;23.278;2022-08-21T04:55:47;94311.34;;;20.24;94.48
6435;BME280;3250;42.694;23.278;2022-08-21T04:58:15;94301.94;;;20.56;92.67
6435;BME280;3250;42.694;23.278;2022-08-21T05:00:43;94293.53;;;21.24;90.65
6435;BME280;3250;42.694;23.278;2022-08-21T05:03:11;94306.53;;;22.28;85.60
6435;BME280;3250;42.694;23.278;2022-08-21T05:05:37;94321.34;;;22.93;80.56
6435;BME280;3250;42.694;23.278;2022-08-21T05:08:04;94329.03;;;23.81;77.66
6435;BME280;3250;42.694;23.278;2022-08-21T05:10:30;94325.59;;;24.11;74.50
6435;BME280;3250;42.694;23.278;2022-08-21T05:12:57;94336.50;;;23.84;74.74
6435;BME280;3250;42.694;23.278;2022-08-21T05:15:22;94333.63;;;23.44;77.57
6435;BME280;3250;42.694;23.278;2022-08-21T05:17:48;94329.84;;;23.09;78.35
6435;BME280;3250;42.694;23.278;2022-08-21T05:20:14;94322.94;;;22.53;79.53
6435;BME280;3250;42.694;23.278;2022-08-21T05:22:40;94316.88;;;22.20;81.15
6435;BME280;3250;42.694;23.278;2022-08-21T05:25:06;94318.53;;;22.03;83.19
6435;BME280;3250;42.694;23.278;2022-08-21T05:27:32;94317.22;;;22.00;83.27
6435;BME280;3250;42.694;23.278;2022-08-21T05:29:57;94310.84;;;21.96;84.21
6435;BME280;3250;42.694;23.278;2022-08-21T05:32:23;94314.56;;;21.81;83.74
6435;BME280;3250;42.694;23.278;2022-08-21T05:34:49;94313.06;;;21.75;84.18
6435;BME280;3250;42.694;23.278;2022-08-21T05:37:15;94307.34;;;21.63;84.28
6435;BME280;3250;42.694;23.278;2022-08-21T05:39:41;94298.84;;;21.61;86.20
6435;BME280;3250;42.694;23.278;2022-08-21T05:42:07;94300.22;;;21.59;86.24
6435;BME280;3250;42.694;23.278;2022-08-21T05:44:32;94306.94;;;21.56;84.27
6435;BME280;3250;42.694;23.278;2022-08-21T05:47:09;94291.63;;;21.43;84.92
6435;BME280;3250;42.694;23.278;2022-08-21T05:49:35;94302.97;;;21.54;86.00
6435;BME280;3250;42.694;23.278;2022-08-21T05:52:01;94289.03;;;21.19;86.09
6435;BME280;3250;42.694;23.278;2022-08-21T05:54:27;94295.63;;;21.08;87.32
6435;BME280;3250;42.694;23.278;2022-08-21T05:56:53;94300.06;;;21.13;88.32
6435;BME280;3250;42.694;23.278;2022-08-21T05:59:19;94296.03;;;21.15;89.50
6435;BME280;3250;42.694;23.278;2022-08-21T06:01:44;94294.16;;;21.16;89.60
6435;BME280;3250;42.694;23.278;2022-08-21T06:04:11;94302.94;;;21.21;89.93
6435;BME280;3250;42.694;23.278;2022-08-21T06:06:36;94295.91;;;21.25;89.89
6435;BME280;3250;42.694;23.278;2022-08-21T06:09:03;94303.88;;;21.30;90.17
6435;BME280;3250;42.694;23.278;2022-08-21T06:11:29;94300.53;;;21.38;89.73
6435;BME280;3250;42.694;23.278;2022-08-21T06:13:54;94301.41;;;21.53;89.50
6435;BME280;3250;42.694;23.278;2022-08-21T06:16:20;94301.53;;;22.07;88.40
6435;BME280;3250;42.694;23.278;2022-08-21T06:18:46;94298.88;;;22.76;86.41
6435;BME280;3250;42.694;23.278;2022-08-21T06:21:12;94305.22;;;23.29;83.09
6435;BME280;3250;42.694;23.278;2022-08-21T06:23:39;94305.97;;;23.57;81.34
6435;BME280;3250;42.694;23.278;2022-08-21T06:26:06;94311.63;;;23.56;80.33
6435;BME280;3250;42.694;23.278;2022-08-21T06:28:33;94305.00;;;23.40;80.03
6435;BME280;3250;42.694;23.278;2022-08-21T06:30:58;94310.09;;;23.27;80.70
6435;BME280;3250;42.694;23.278;2022-08-21T06:33:24;94301.31;;;23.13;81.34
6435;BME280;3250;42.694;23.278;2022-08-21T06:35:50;94308.69;;;23.08;81.70
6435;BME280;3250;42.694;23.278;2022-08-21T06:38:15;94310.66;;;23.02;81.77
6435;BME280;3250;42.694;23.278;2022-08-21T06:40:41;94272.53;;;22.78;82.77
6435;BME280;3250;42.694;23.278;2022-08-21T06:43:12;94318.25;;;23.00;82.94
6435;BME280;3250;42.694;23.278;2022-08-21T06:45:38;94313.19;;;22.99;80.21
6435;BME280;3250;42.694;23.278;2022-08-21T06:48:04;94311.75;;;23.01;82.42
6435;BME280;3250;42.694;23.278;2022-08-21T06:50:30;94304.72;;;23.05;82.04
6435;BME280;3250;42.694;23.278;2022-08-21T06:53:01;94308.44;;;23.18;81.12
6435;BME280;3250;42.694;23.278;2022-08-21T06:55:27;94307.31;;;23.32;81.78
6435;BME280;3250;42.694;23.278;2022-08-21T06:57:53;94318.09;;;23.55;80.55
6435;BME280;3250;42.694;23.278;2022-08-21T07:00:20;94313.66;;;23.73;80.39
6435;BME280;3250;42.694;23.278;2022-08-21T07:02:45;94328.09;;;24.07;79.58
6435;BME280;3250;42.694;23.278;2022-08-21T07:05:11;94330.00;;;24.69;77.67
6435;BME280;3250;42.694;23.278;2022-08-21T07:07:36;94339.59;;;24.92;72.75
6435;BME280;3250;42.694;23.278;2022-08-21T07:10:02;94337.44;;;24.72;72.38
6435;BME280;3250;42.694;23.278;2022-08-21T07:12:27;94318.38;;;24.51;73.05
6435;BME280;3250;42.694;23.278;2022-08-21T07:14:53;94339.44;;;24.58;73.17
6435;BME280;3250;42.694;23.278;2022-08-21T07:17:18;94326.22;;;24.39;73.88
6435;BME280;3250;42.694;23.278;2022-08-21T07:19:44;94335.63;;;24.50;74.42
6435;BME280;3250;42.694;23.278;2022-08-21T07:22:09;94311.84;;;24.43;74.25
6435;BME280;3250;42.694;23.278;2022-08-21T07:24:35;94340.41;;;24.62;73.94
6435;BME280;3250;42.694;23.278;2022-08-21T07:27:00;94316.50;;;24.60;74.19
6435;BME280;3250;42.694;23.278;2022-08-21T07:29:25;94317.94;;;24.66;73.56
6435;BME280;3250;42.694;23.278;2022-08-21T07:31:51;94318.31;;;24.82;73.62
6435;BME280;3250;42.694;23.278;2022-08-21T07:34:16;94323.13;;;25.02;72.62
6435;BME280;3250;42.694;23.278;2022-08-21T07:36:42;94311.09;;;25.26;73.96
6435;BME280;3250;42.694;23.278;2022-08-21T07:39:08;94309.41;;;25.73;72.10
6435;BME280;3250;42.694;23.278;2022-08-21T07:41:33;94314.69;;;26.24;67.33
6435;BME280;3250;42.694;23.278;2022-08-21T07:43:59;94291.34;;;26.37;67.36
6435;BME280;3250;42.694;23.278;2022-08-21T07:46:25;94312.63;;;26.68;68.00
6435;BME280;3250;42.694;23.278;2022-08-21T07:48:52;94317.47;;;26.83;65.36
6435;BME280;3250;42.694;23.278;2022-08-21T07:51:19;94304.66;;;26.80;64.89
6435;BME280;3250;42.694;23.278;2022-08-21T07:53:51;94309.91;;;26.77;64.93
6435;BME280;3250;42.694;23.278;2022-08-21T07:56:17;94291.63;;;26.44;63.74
6435;BME280;3250;42.694;23.278;2022-08-21T07:58:43;94290.22;;;26.21;65.64
6435;BME280;3250;42.694;23.278;2022-08-21T08:01:08;94304.41;;;26.18;64.83
6435;BME280;3250;42.694;23.278;2022-08-21T08:03:34;94290.19;;;25.91;66.10
6435;BME280;3250;42.694;23.278;2022-08-21T08:05:59;94307.50;;;25.65;65.63
6435;BME280;3250;42.694;23.278;2022-08-21T08:08:25;94308.91;;;25.79;68.01
6435;BME280;3250;42.694;23.278;2022-08-21T08:10:52;94310.75;;;26.13;69.03
6435;BME280;3250;42.694;23.278;2022-08-21T08:13:18;94299.66;;;26.06;65.01
6435;BME280;3250;42.694;23.278;2022-08-21T08:15:44;94307.38;;;26.25;66.65
6435;BME280;3250;42.694;23.278;2022-08-21T08:18:09;94310.81;;;26.51;64.24
6435;BME280;3250;42.694;23.278;2022-08-21T08:20:35;94307.00;;;26.52;62.65
6435;BME280;3250;42.694;23.278;2022-08-21T08:23:02;94306.16;;;26.60;64.76
6435;BME280;3250;42.694;23.278;2022-08-21T08:25:28;94308.41;;;26.88;62.93
6435;BME280;3250;42.694;23.278;2022-08-21T08:27:53;94301.97;;;27.30;62.89
6435;BME280;3250;42.694;23.278;2022-08-21T08:30:19;94299.47;;;27.67;60.24
6435;BME280;3250;42.694;23.278;2022-08-21T08:32:46;94309.47;;;27.87;59.86
6435;BME280;3250;42.694;23.278;2022-08-21T08:35:12;94296.53;;;27.93;60.48
6435;BME280;3250;42.694;23.278;2022-08-21T08:37:38;94306.34;;;28.18;58.92
6435;BME280;3250;42.694;23.278;2022-08-21T08:40:09;94300.50;;;28.65;60.91
6435;BME280;3250;42.694;23.278;2022-08-21T08:42:36;94309.81;;;29.12;56.52
6435;BME280;3250;42.694;23.278;2022-08-21T08:45:12;94312.19;;;29.14;54.27
6435;BME280;3250;42.694;23.278;2022-08-21T08:47:42;94314.19;;;28.68;55.01
6435;BME280;3250;42.694;23.278;2022-08-21T08:50:55;94303.91;;;28.49;57.25
6435;BME280;3250;42.694;23.278;2022-08-21T08:53:06;94269.47;;;28.74;58.10
6435;BME280;3250;42.694;23.278;2022-08-21T08:55:43;94294.63;;;29.23;53.13
6435;BME280;3250;42.694;23.278;2022-08-21T08:58:24;94297.50;;;29.03;54.38
6435;BME280;3250;42.694;23.278;2022-08-21T09:00:53;94276.38;;;28.60;53.10
6435;BME280;3250;42.694;23.278;2022-08-21T09:03:24;94280.53;;;28.57;56.18
6435;BME280;3250;42.694;23.278;2022-08-21T09:08:46;94272.75;;;27.45;55.74
6435;BME280;3250;42.694;23.278;2022-08-21T09:11:29;94271.56;;;27.54;58.94
6435;BME280;3250;42.694;23.278;2022-08-21T09:27:11;94259.63;;;29.06;52.32
6435;BME280;3250;42.694;23.278;2022-08-21T09:29:39;94260.47;;;28.95;53.38
6435;BME280;3250;42.694;23.278;2022-08-21T09:35:36;94249.84;;;28.53;54.53
6435;BME280;3250;42.694;23.278;2022-08-21T09:37:59;94251.06;;;28.19;54.82
6435;BME280;3250;42.694;23.278;2022-08-21T09:40:43;94252.97;;;27.86;55.41
6435;BME280;3250;42.694;23.278;2022-08-21T09:45:40;94246.16;;;27.67;57.94
6435;BME280;3250;42.694;23.278;2022-08-21T09:48:14;94246.16;;;27.47;56.36
6435;BME280;3250;42.694;23.278;2022-08-21T09:50:41;94247.81;;;27.39;56.88
6435;BME280;3250;42.694;23.278;2022-08-21T09:53:19;94241.75;;;27.21;56.63
6435;BME280;3250;42.694;23.278;2022-08-21T09:55:59;94241.69;;;27.09;58.48
6435;BME280;3250;42.694;23.278;2022-08-21T09:58:46;94237.44;;;26.79;57.97
6435;BME280;3250;42.694;23.278;2022-08-21T10:01:17;94227.72;;;26.27;58.55
6435;BME280;3250;42.694;23.278;2022-08-21T10:03:44;94217.91;;;26.06;61.68
6435;BME280;3250;42.694;23.278;2022-08-21T10:06:19;94226.28;;;26.13;61.13
6435;BME280;3250;42.694;23.278;2022-08-21T10:08:46;94213.16;;;26.11;61.53
6435;BME280;3250;42.694;23.278;2022-08-21T10:11:14;94224.63;;;25.91;60.70
6435;BME280;3250;42.694;23.278;2022-08-21T10:24:20;94206.84;;;25.99;62.58
6435;BME280;3250;42.694;23.278;2022-08-21T10:27:12;94201.84;;;26.26;65.78
6435;BME280;3250;42.694;23.278;2022-08-21T10:29:57;94200.66;;;26.65;61.12
6435;BME280;3250;42.694;23.278;2022-08-21T10:46:00;94176.53;;;26.31;58.59
6435;BME280;3250;42.694;23.278;2022-08-21T10:48:52;94187.91;;;26.45;59.27
6435;BME280;3250;42.694;23.278;2022-08-21T10:51:39;94188.38;;;26.47;58.22
6435;BME280;3250;42.694;23.278;2022-08-21T10:54:50;94180.22;;;26.56;59.29
6435;BME280;3250;42.694;23.278;2022-08-21T10:57:34;94171.56;;;26.42;62.81
6435;BME280;3250;42.694;23.278;2022-08-21T11:00:07;94168.81;;;26.50;61.14
6435;BME280;3250;42.694;23.278;2022-08-21T11:02:46;94165.06;;;26.43;61.46
6435;BME280;3250;42.694;23.278;2022-08-21T11:05:35;94165.78;;;26.22;60.79
6435;BME280;3250;42.694;23.278;2022-08-21T11:08:11;94168.72;;;26.38;61.01
6435;BME280;3250;42.694;23.278;2022-08-21T11:10:42;94164.78;;;26.56;60.07
6435;BME280;3250;42.694;23.278;2022-08-21T11:13:30;94155.47;;;26.54;59.96
6435;BME280;3250;42.694;23.278;2022-08-21T11:18:47;94149.25;;;26.74;60.87
6435;BME280;3250;42.694;23.278;2022-08-21T11:26:43;94138.53;;;27.07;59.99
6435;BME280;3250;42.694;23.278;2022-08-21T11:29:23;94156.78;;;27.10;58.49
6435;BME280;3250;42.694;23.278;2022-08-21T11:39:38;94146.09;;;26.22;61.27
6435;BME280;3250;42.694;23.278;2022-08-21T11:50:30;94138.84;;;26.43;61.19
6435;BME280;3250;42.694;23.278;2022-08-21T11:53:01;94139.56;;;26.23;59.00
6435;BME280;3250;42.694;23.278;2022-08-21T11:55:43;94119.88;;;26.02;59.76
6435;BME280;3250;42.694;23.278;2022-08-21T11:58:25;94135.81;;;26.15;59.99
6435;BME280;3250;42.694;23.278;2022-08-21T12:01:00;94093.81;;;26.06;61.30
6435;BME280;3250;42.694;23.278;2022-08-21T12:06:33;94142.88;;;26.37;59.00
6435;BME280;3250;42.694;23.278;2022-08-21T12:09:04;94131.13;;;26.33;59.28
6435;BME280;3250;42.694;23.278;2022-08-21T12:11:30;94110.00;;;26.06;60.27
6435;BME280;3250;42.694;23.278;2022-08-21T12:16:36;94126.16;;;25.76;60.10
6435;BME280;3250;42.694;23.278;2022-08-21T12:19:13;94118.09;;;25.76;60.46
6435;BME280;3250;42.694;23.278;2022-08-21T12:21:54;94120.78;;;25.76;61.51
6435;BME280;3250;42.694;23.278;2022-08-21T12:24:33;94134.22;;;25.85;61.75
6435;BME280;3250;42.694;23.278;2022-08-21T12:27:21;94136.28;;;25.79;61.96
6435;BME280;3250;42.694;23.278;2022-08-21T12:30:03;94127.44;;;25.70;62.19
6435;BME280;3250;42.694;23.278;2022-08-21T12:32:46;94125.03;;;25.77;62.21
6435;BME280;3250;42.694;23.278;2022-08-21T12:35:22;94134.28;;;25.68;62.76
6435;BME280;3250;42.694;23.278;2022-08-21T12:40:30;94132.84;;;25.70;62.53
6435;BME280;3250;42.694;23.278;2022-08-21T12:42:59;94126.00;;;25.73;61.50
6435;BME280;3250;42.694;23.278;2022-08-21T12:47:59;94126.22;;;25.68;60.94
6435;BME280;3250;42.694;23.278;2022-08-21T12:53:07;94120.34;;;25.57;60.98
6435;BME280;3250;42.694;23.278;2022-08-21T12:55:34;94107.84;;;25.44;60.71
6435;BME280;3250;42.694;23.278;2022-08-21T12:58:00;94121.16;;;25.49;60.63
6435;BME280;3250;42.694;23.278;2022-08-21T13:00:27;94121.97;;;25.41;61.32
6435;BME280;3250;42.694;23.278;2022-08-21T13:02:54;94109.16;;;25.29;60.62
6435;BME280;3250;42.694;23.278;2022-08-21T13:05:39;94115.53;;;25.25;61.41
6435;BME280;3250;42.694;23.278;2022-08-21T13:08:07;94111.09;;;25.20;61.74
6435;BME280;3250;42.694;23.278;2022-08-21T13:10:34;94124.53;;;25.29;60.91
6435;BME280;3250;42.694;23.278;2022-08-21T13:13:06;94117.88;;;25.26;60.97
6435;BME280;3250;42.694;23.278;2022-08-21T13:15:36;94115.66;;;25.28;61.54
6435;BME280;3250;42.694;23.278;2022-08-21T13:18:04;94109.47;;;25.28;62.42
6435;BME280;3250;42.694;23.278;2022-08-21T13:20:38;94116.94;;;25.22;62.26
6435;BME280;3250;42.694;23.278;2022-08-21T13:25:43;94087.97;;;25.10;62.70
6435;BME280;3250;42.694;23.278;2022-08-21T13:28:11;94092.53;;;25.18;62.72
6435;BME280;3250;42.694;23.278;2022-08-21T13:30:49;94092.84;;;25.26;62.51
6435;BME280;3250;42.694;23.278;2022-08-21T13:33:18;94085.84;;;25.42;62.37
6435;BME280;3250;42.694;23.278;2022-08-21T13:38:14;94065.06;;;25.42;62.67
6435;BME280;3250;42.694;23.278;2022-08-21T13:43:20;94085.41;;;25.69;61.39
6435;BME280;3250;42.694;23.278;2022-08-21T13:45:51;94078.31;;;25.56;61.08
6435;BME280;3250;42.694;23.278;2022-08-21T13:48:17;94080.84;;;25.52;60.36
6435;BME280;3250;42.694;23.278;2022-08-21T13:50:43;94082.28;;;25.59;60.88
6435;BME280;3250;42.694;23.278;2022-08-21T13:56:09;94087.50;;;25.64;62.02
6435;BME280;3250;42.694;23.278;2022-08-21T13:58:46;94081.16;;;25.68;62.46
6435;BME280;3250;42.694;23.278;2022-08-21T14:01:23;94082.59;;;25.66;62.96
6435;BME280;3250;42.694;23.278;2022-08-21T14:03:54;94083.38;;;25.66;62.92
6435;BME280;3250;42.694;23.278;2022-08-21T14:06:25;94077.03;;;25.62;64.57
6435;BME280;3250;42.694;23.278;2022-08-21T14:08:59;94072.91;;;25.56;64.40
6435;BME280;3250;42.694;23.278;2022-08-21T14:11:27;94070.53;;;25.63;64.08
6435;BME280;3250;42.694;23.278;2022-08-21T14:13:57;94066.13;;;25.50;64.14
6435;BME280;3250;42.694;23.278;2022-08-21T14:16:27;94070.59;;;25.46;64.24
6435;BME280;3250;42.694;23.278;2022-08-21T14:19:09;94077.78;;;25.33;64.15
6435;BME280;3250;42.694;23.278;2022-08-21T14:21:42;94079.69;;;25.33;64.73
6435;BME280;3250;42.694;23.278;2022-08-21T14:24:26;94076.03;;;25.29;64.97
6435;BME280;3250;42.694;23.278;2022-08-21T14:26:54;94078.41;;;25.30;64.75
6435;BME280;3250;42.694;23.278;2022-08-21T14:29:22;94077.78;;;25.33;66.16
6435;BME280;3250;42.694;23.278;2022-08-21T14:31:58;94075.25;;;25.28;67.53
6435;BME280;3250;42.694;23.278;2022-08-21T14:34:26;94088.25;;;25.17;68.89
6435;BME280;3250;42.694;23.278;2022-08-21T14:36:52;94064.22;;;24.87;70.40
6435;BME280;3250;42.694;23.278;2022-08-21T14:39:18;94084.34;;;24.98;69.04
6435;BME280;3250;42.694;23.278;2022-08-21T14:41:43;94087.19;;;24.93;70.87
6435;BME280;3250;42.694;23.278;2022-08-21T14:44:12;94082.44;;;24.90;70.91
6435;BME280;3250;42.694;23.278;2022-08-21T14:46:38;94077.38;;;24.97;73.30
6435;BME280;3250;42.694;23.278;2022-08-21T14:49:04;94086.09;;;25.02;73.19
6435;BME280;3250;42.694;23.278;2022-08-21T14:51:30;94050.16;;;24.81;72.79
6435;BME280;3250;42.694;23.278;2022-08-21T14:53:55;94077.34;;;25.14;74.25